createdAt,value
2022-12-25T00:02:29.899Z,91.67
2022-12-25T00:04:58.745Z,91.99
2022-12-25T00:07:27.414Z,92.14
2022-12-25T00:09:56.174Z,91.93
2022-12-25T00:12:24.886Z,91.64
2022-12-25T00:14:54.796Z,91.89
2022-12-25T00:17:25.072Z,91.91
2022-12-25T00:19:54.089Z,92.21
2022-12-25T00:22:23.346Z,92.02
2022-12-25T00:24:51.990Z,92.01
2022-12-25T00:27:21.075Z,92.13
2022-12-25T00:29:49.693Z,92.13
2022-12-25T00:32:18.606Z,92.10
2022-12-25T00:34:49.107Z,91.90
2022-12-25T00:37:17.901Z,92.08
2022-12-25T00:39:46.664Z,92.22
2022-12-25T00:42:21.538Z,92.02
2022-12-25T00:44:51.304Z,92.05
2022-12-25T00:47:19.664Z,92.00
2022-12-25T00:49:49.914Z,92.46
2022-12-25T00:52:18.601Z,92.42
2022-12-25T00:54:47.316Z,92.16
2022-12-25T00:57:16.015Z,92.04
2022-12-25T00:59:44.823Z,92.31
2022-12-25T01:02:23.618Z,92.39
2022-12-25T01:04:55.831Z,92.36
2022-12-25T01:07:27.459Z,92.28
2022-12-25T01:10:05.866Z,92.09
2022-12-25T01:12:37.215Z,92.24
2022-12-25T01:15:07.768Z,92.66
2022-12-25T01:17:36.513Z,92.42
2022-12-25T01:20:07.664Z,92.40
2022-12-25T01:22:36.974Z,92.40
2022-12-25T01:25:06.570Z,92.56
2022-12-25T01:27:35.696Z,92.46
2022-12-25T01:30:04.456Z,92.50
2022-12-25T01:32:33.152Z,92.92
2022-12-25T01:35:01.928Z,92.54
2022-12-25T01:37:32.044Z,92.63
2022-12-25T01:40:00.706Z,92.91
2022-12-25T01:42:30.381Z,92.43
2022-12-25T01:45:16.605Z,92.89
2022-12-25T01:47:45.411Z,93.11
2022-12-25T01:50:14.178Z,92.86
2022-12-25T01:52:44.447Z,92.53
2022-12-25T01:55:13.970Z,92.84
2022-12-25T01:57:44.388Z,92.68
2022-12-25T02:00:14.340Z,92.87
2022-12-25T02:02:45.067Z,93.06
2022-12-25T02:05:20.647Z,92.99
2022-12-25T02:07:52.091Z,92.66
2022-12-25T02:10:21.105Z,92.90
2022-12-25T02:12:50.496Z,92.37
2022-12-25T02:15:21.912Z,93.07
2022-12-25T02:17:59.044Z,92.42
2022-12-25T02:20:52.533Z,92.33
2022-12-25T02:23:51.108Z,93.11
2022-12-25T02:26:37.915Z,92.90
2022-12-25T02:29:15.977Z,92.92
2022-12-25T02:31:54.921Z,92.90
2022-12-25T02:34:31.808Z,92.62
2022-12-25T02:37:08.466Z,92.30
2022-12-25T02:39:55.588Z,92.61
2022-12-25T02:42:45.870Z,92.37
2022-12-25T02:45:31.407Z,92.89
2022-12-25T02:48:10.195Z,92.56
2022-12-25T02:50:48.879Z,93.03
2022-12-25T02:53:27.483Z,92.85
2022-12-25T02:56:08.086Z,92.45
2022-12-25T02:58:50.624Z,92.48
2022-12-25T03:01:34.079Z,92.38
2022-12-25T03:04:18.207Z,92.90
2022-12-25T03:07:02.169Z,92.76
2022-12-25T03:09:47.780Z,93.02
2022-12-25T03:12:23.755Z,92.47
2022-12-25T03:15:02.950Z,92.51
2022-12-25T03:17:34.697Z,92.71
2022-12-25T03:20:20.513Z,92.58
2022-12-25T03:22:58.538Z,93.10
2022-12-25T03:25:38.466Z,92.76
2022-12-25T03:28:07.955Z,92.88
2022-12-25T03:30:55.424Z,93.02
2022-12-25T03:33:44.994Z,92.62
2022-12-25T03:36:21.433Z,92.42
2022-12-25T03:39:07.836Z,92.55
2022-12-25T03:41:54.387Z,92.71
2022-12-25T03:44:38.314Z,93.19
2022-12-25T03:47:36.693Z,92.79
2022-12-25T03:50:28.013Z,93.15
2022-12-25T03:53:10.685Z,93.31
2022-12-25T03:55:55.358Z,92.76
2022-12-25T03:58:36.656Z,93.39
2022-12-25T04:01:15.344Z,93.48
2022-12-25T04:03:54.065Z,93.27
2022-12-25T04:06:34.189Z,92.91
2022-12-25T04:09:13.046Z,92.66
2022-12-25T04:11:52.620Z,93.19
2022-12-25T04:14:36.457Z,93.19
2022-12-25T04:17:14.976Z,93.30
2022-12-25T04:19:53.630Z,93.01
2022-12-25T04:22:32.496Z,93.37
2022-12-25T04:25:10.987Z,92.97
2022-12-25T04:27:48.945Z,93.36
2022-12-25T04:30:27.659Z,93.43
2022-12-25T04:33:08.968Z,93.49
2022-12-25T04:35:48.583Z,93.52
2022-12-25T04:38:21.244Z,93.50
2022-12-25T04:40:50.286Z,92.80
2022-12-25T04:43:18.929Z,93.28
2022-12-25T04:45:54.157Z,93.14
2022-12-25T04:48:23.379Z,92.83
2022-12-25T04:50:52.044Z,93.02
2022-12-25T04:53:22.455Z,93.32
2022-12-25T04:55:51.197Z,93.04
2022-12-25T04:58:19.780Z,93.53
2022-12-25T05:00:48.450Z,92.95
2022-12-25T05:03:17.224Z,93.68
2022-12-25T05:05:46.078Z,92.82
2022-12-25T05:08:14.827Z,93.34
2022-12-25T05:10:45.149Z,93.21
2022-12-25T05:13:13.990Z,93.69
2022-12-25T05:15:43.181Z,93.57
2022-12-25T05:18:12.089Z,93.68
2022-12-25T05:20:40.694Z,93.57
2022-12-25T05:23:12.295Z,93.54
2022-12-25T05:25:41.562Z,93.58
2022-12-25T05:28:11.753Z,93.63
2022-12-25T05:30:40.799Z,93.69
2022-12-25T05:33:09.552Z,93.30
2022-12-25T05:35:39.111Z,93.47
2022-12-25T05:38:08.611Z,92.65
2022-12-25T05:40:40.493Z,93.40
2022-12-25T05:43:09.453Z,93.17
2022-12-25T05:45:39.623Z,92.79
2022-12-25T05:48:08.476Z,93.55
2022-12-25T05:50:38.918Z,92.76
2022-12-25T05:53:09.142Z,92.40
2022-12-25T05:55:38.826Z,93.00
2022-12-25T05:58:09.605Z,92.32
2022-12-25T06:00:40.453Z,92.38
2022-12-25T06:03:09.265Z,92.38
2022-12-25T06:05:40.127Z,93.19
2022-12-25T06:08:09.377Z,93.15
2022-12-25T06:10:38.158Z,92.33
2022-12-25T06:13:06.981Z,92.92
2022-12-25T06:15:35.663Z,92.84
2022-12-25T06:18:05.944Z,92.19
2022-12-25T06:20:34.954Z,92.46
2022-12-25T06:23:03.751Z,92.39
2022-12-25T06:25:32.465Z,92.50
2022-12-25T06:28:01.046Z,92.36
2022-12-25T06:30:30.076Z,92.61
2022-12-25T06:32:59.809Z,92.59
2022-12-25T06:35:29.927Z,93.44
2022-12-25T06:37:58.728Z,93.09
2022-12-25T06:40:27.474Z,92.90
2022-12-25T06:42:56.095Z,92.72
2022-12-25T06:45:24.938Z,93.05
2022-12-25T06:47:53.664Z,92.94
2022-12-25T06:50:22.521Z,92.75
2022-12-25T06:52:52.525Z,92.76
2022-12-25T06:55:21.250Z,93.41
2022-12-25T06:57:49.977Z,92.49
2022-12-25T07:00:18.989Z,92.79
2022-12-25T07:02:50.314Z,93.58
2022-12-25T07:05:19.324Z,93.41
2022-12-25T07:07:47.928Z,93.44
2022-12-25T07:10:18.251Z,92.85
2022-12-25T07:12:46.945Z,93.61
2022-12-25T07:15:15.721Z,93.46
2022-12-25T07:17:44.508Z,93.10
2022-12-25T07:20:13.177Z,93.65
2022-12-25T07:22:41.991Z,93.04
2022-12-25T07:25:10.856Z,93.30
2022-12-25T07:27:41.353Z,93.08
2022-12-25T07:30:11.279Z,93.80
2022-12-25T07:32:40.959Z,93.61
2022-12-25T07:35:12.113Z,93.24
2022-12-25T07:37:40.811Z,93.58
2022-12-25T07:40:10.980Z,93.14
2022-12-25T07:42:41.171Z,93.79
2022-12-25T07:45:10.688Z,93.39
2022-12-25T07:47:39.828Z,93.54
2022-12-25T07:50:09.636Z,93.71
2022-12-25T07:52:43.483Z,94.06
2022-12-25T07:55:12.796Z,93.91
2022-12-25T07:57:42.837Z,94.08
2022-12-25T08:00:12.843Z,93.42
2022-12-25T08:02:41.952Z,93.53
2022-12-25T08:05:11.225Z,93.69
2022-12-25T08:07:39.819Z,93.97
2022-12-25T08:10:09.474Z,94.31
2022-12-25T08:12:37.941Z,93.97
2022-12-25T08:15:09.331Z,93.85
2022-12-25T08:17:37.991Z,94.08
2022-12-25T08:20:08.037Z,93.63
2022-12-25T08:22:37.061Z,93.97
2022-12-25T08:25:06.370Z,94.16
2022-12-25T08:27:35.942Z,94.38
2022-12-25T08:30:05.366Z,94.12
2022-12-25T08:32:35.639Z,94.42
2022-12-25T08:35:04.446Z,94.59
2022-12-25T08:37:33.059Z,94.57
2022-12-25T08:40:01.895Z,94.46
2022-12-25T08:42:30.586Z,94.52
2022-12-25T08:44:59.471Z,94.45
2022-12-25T08:47:28.223Z,94.31
2022-12-25T08:49:58.274Z,94.53
2022-12-25T08:52:27.103Z,94.78
2022-12-25T08:54:56.431Z,94.52
2022-12-25T08:57:25.135Z,94.53
2022-12-25T08:59:53.780Z,94.52
2022-12-25T09:02:22.707Z,94.67
2022-12-25T09:04:51.531Z,94.77
2022-12-25T09:07:21.823Z,94.69
2022-12-25T09:09:50.743Z,94.77
2022-12-25T09:12:19.514Z,94.51
2022-12-25T09:14:48.215Z,94.89
2022-12-25T09:17:16.794Z,94.81
2022-12-25T09:19:45.535Z,95.29
2022-12-25T09:22:14.224Z,95.14
2022-12-25T09:24:44.293Z,95.19
2022-12-25T09:27:14.215Z,95.09
2022-12-25T09:29:43.183Z,94.88
2022-12-25T09:32:12.069Z,95.51
2022-12-25T09:34:40.730Z,95.50
2022-12-25T09:37:09.459Z,94.97
2022-12-25T09:39:44.000Z,95.36
2022-12-25T09:42:20.689Z,95.30
2022-12-25T09:44:54.722Z,94.96
2022-12-25T09:47:27.446Z,94.78
2022-12-25T09:50:02.521Z,95.17
2022-12-25T09:52:38.933Z,95.47
2022-12-25T09:55:19.569Z,94.56
2022-12-25T09:57:52.912Z,95.06
2022-12-25T10:00:24.430Z,94.41
2022-12-25T10:03:11.810Z,94.23
2022-12-25T10:06:04.596Z,94.42
2022-12-25T10:08:58.733Z,93.46
2022-12-25T10:11:40.543Z,93.86
2022-12-25T10:14:24.593Z,93.31
2022-12-25T10:17:06.468Z,93.13
2022-12-25T10:19:45.950Z,93.43
2022-12-25T10:22:20.511Z,93.04
2022-12-25T10:24:52.735Z,92.13
2022-12-25T10:27:26.651Z,92.12
2022-12-25T10:29:56.895Z,92.60
2022-12-25T10:32:25.738Z,92.64
2022-12-25T10:34:54.939Z,92.16
2022-12-25T10:37:24.474Z,92.39
2022-12-25T10:39:53.065Z,92.54
2022-12-25T10:42:35.201Z,92.61
2022-12-25T10:45:09.321Z,92.29
2022-12-25T10:47:41.971Z,92.33
2022-12-25T10:50:13.834Z,92.34
2022-12-25T10:52:55.574Z,92.34
2022-12-25T10:55:28.697Z,92.33
2022-12-25T10:57:59.028Z,91.67
2022-12-25T11:00:31.143Z,92.05
2022-12-25T11:03:00.871Z,91.66
2022-12-25T11:05:32.193Z,91.73
2022-12-25T11:08:03.065Z,91.58
2022-12-25T11:10:35.472Z,91.67
2022-12-25T11:13:06.796Z,91.20
2022-12-25T11:15:40.393Z,91.24
2022-12-25T11:18:21.210Z,90.85
2022-12-25T11:20:51.536Z,91.09
2022-12-25T11:23:22.075Z,91.34
2022-12-25T11:25:57.999Z,90.51
2022-12-25T11:28:27.507Z,90.92
2022-12-25T11:31:02.313Z,90.23
2022-12-25T11:33:37.126Z,89.86
2022-12-25T11:36:17.119Z,90.47
2022-12-25T11:38:46.218Z,89.98
2022-12-25T11:41:20.795Z,90.14
2022-12-25T11:43:56.453Z,90.66
2022-12-25T11:46:32.615Z,90.17
2022-12-25T11:49:07.051Z,90.70
2022-12-25T11:51:40.217Z,90.88
2022-12-25T11:54:19.360Z,89.53
2022-12-25T11:56:48.100Z,90.29
2022-12-25T11:59:22.969Z,90.09
2022-12-25T12:01:56.596Z,90.13
2022-12-25T12:04:32.667Z,89.69
2022-12-25T12:07:08.597Z,89.40
2022-12-25T12:09:45.711Z,90.15
2022-12-25T12:12:20.166Z,89.33
2022-12-25T12:14:53.182Z,89.84
2022-12-25T12:17:23.789Z,89.41
2022-12-25T12:19:52.899Z,89.75
2022-12-25T12:22:24.470Z,89.37
2022-12-25T12:24:57.612Z,89.60
2022-12-25T12:27:33.577Z,88.79
2022-12-25T12:30:02.863Z,89.34
2022-12-25T12:32:42.248Z,89.07
2022-12-25T12:35:18.644Z,88.26
2022-12-25T12:37:51.650Z,87.25
2022-12-25T12:40:27.680Z,85.74
2022-12-25T12:42:56.652Z,83.81
2022-12-25T12:45:29.468Z,82.99
2022-12-25T12:47:59.968Z,82.40
2022-12-25T12:50:41.212Z,82.26
2022-12-25T12:53:30.138Z,81.88
2022-12-25T12:56:10.021Z,81.68
2022-12-25T12:58:45.590Z,81.75
2022-12-25T13:01:37.162Z,81.59
2022-12-25T13:04:33.720Z,82.18
2022-12-25T13:07:13.762Z,82.88
2022-12-25T13:09:59.883Z,82.91
2022-12-25T13:12:29.313Z,82.99
2022-12-25T13:14:58.127Z,83.47
2022-12-25T13:17:27.737Z,83.52
2022-12-25T13:20:01.003Z,83.90
2022-12-25T13:22:34.462Z,83.75
2022-12-25T13:25:06.328Z,83.93
2022-12-25T13:27:35.574Z,84.90
2022-12-25T13:30:14.536Z,84.37
2022-12-25T13:32:46.026Z,85.38
2022-12-25T13:35:17.626Z,84.84
2022-12-25T13:37:46.709Z,85.57
2022-12-25T13:40:24.693Z,85.65
2022-12-25T13:43:00.034Z,85.84
2022-12-25T13:45:31.312Z,85.61
2022-12-25T13:48:10.347Z,85.35
2022-12-25T13:50:45.171Z,85.39
2022-12-25T13:53:15.962Z,85.61
2022-12-25T13:55:48.547Z,86.44
2022-12-25T13:58:24.169Z,86.10
2022-12-25T14:00:55.849Z,86.28
2022-12-25T14:03:27.531Z,86.80
2022-12-25T14:06:02.519Z,87.05
2022-12-25T14:08:33.390Z,86.59
2022-12-25T14:11:05.854Z,86.89
2022-12-25T14:13:39.066Z,87.08
2022-12-25T14:16:10.400Z,87.70
2022-12-25T14:18:39.537Z,87.12
2022-12-25T14:21:15.917Z,87.00
2022-12-25T14:23:47.447Z,87.75
2022-12-25T14:26:17.360Z,87.57
2022-12-25T14:28:50.130Z,86.87
2022-12-25T14:31:19.499Z,87.93
2022-12-25T14:33:49.174Z,87.86
2022-12-25T14:36:19.449Z,87.21
2022-12-25T14:38:58.680Z,87.70
2022-12-25T14:41:38.173Z,88.18
2022-12-25T14:44:31.168Z,88.21
2022-12-25T14:47:15.059Z,88.18
2022-12-25T14:49:44.522Z,87.84
2022-12-25T14:52:20.569Z,88.54
2022-12-25T14:54:52.244Z,88.99
2022-12-25T14:57:28.030Z,88.42
2022-12-25T15:00:07.678Z,88.39
2022-12-25T15:02:41.724Z,88.99
2022-12-25T15:05:26.615Z,88.43
2022-12-25T15:08:06.924Z,89.06
2022-12-25T15:13:25.741Z,88.96
2022-12-25T15:16:00.276Z,89.64
2022-12-25T15:18:34.156Z,89.85
2022-12-25T15:21:03.356Z,90.20
2022-12-25T15:23:33.562Z,90.03
2022-12-25T15:26:02.392Z,89.65
2022-12-25T15:28:31.031Z,90.13
2022-12-25T15:30:59.837Z,89.97
2022-12-25T15:33:28.508Z,89.97
2022-12-25T15:35:57.185Z,90.08
2022-12-25T15:38:25.875Z,90.66
2022-12-25T15:40:56.136Z,90.27
2022-12-25T15:43:41.302Z,90.76
2022-12-25T15:46:11.370Z,89.99
2022-12-25T15:48:39.973Z,91.38
2022-12-25T15:51:08.627Z,90.83
2022-12-25T15:53:37.285Z,90.98
2022-12-25T15:56:08.285Z,91.52
2022-12-25T15:58:37.025Z,90.91
2022-12-25T16:01:06.037Z,91.23
2022-12-25T16:03:35.025Z,90.43
2022-12-25T16:06:03.625Z,91.14
2022-12-25T16:08:32.275Z,91.18
2022-12-25T16:11:01.063Z,91.37
2022-12-25T16:13:31.130Z,91.47
2022-12-25T16:16:00.015Z,91.86
2022-12-25T16:18:30.074Z,91.60
2022-12-25T16:21:00.540Z,91.93
2022-12-25T16:23:29.200Z,91.69
2022-12-25T16:25:57.835Z,92.10
2022-12-25T16:28:26.538Z,92.25
2022-12-25T16:30:56.657Z,92.17
2022-12-25T16:33:26.358Z,92.83
2022-12-25T16:35:54.967Z,92.94
2022-12-25T16:38:23.745Z,92.60
2022-12-25T16:40:58.114Z,92.59
2022-12-25T16:43:27.175Z,92.11
2022-12-25T16:45:57.827Z,92.27
2022-12-25T16:48:26.547Z,92.73
2022-12-25T16:50:55.176Z,92.35
2022-12-25T16:53:24.158Z,92.67
2022-12-25T16:55:52.792Z,92.24
2022-12-25T16:58:21.558Z,93.14
2022-12-25T17:00:50.156Z,92.33
2022-12-25T17:03:21.030Z,92.82
2022-12-25T17:05:49.782Z,92.34
2022-12-25T17:08:18.420Z,92.71
2022-12-25T17:10:47.169Z,92.24
2022-12-25T17:13:15.810Z,93.28
2022-12-25T17:15:50.183Z,92.44
2022-12-25T17:18:22.375Z,92.60
2022-12-25T17:20:52.307Z,92.37
2022-12-25T17:23:21.242Z,92.72
2022-12-25T17:25:49.819Z,92.84
2022-12-25T17:28:18.489Z,92.21
2022-12-25T17:30:47.119Z,92.71
2022-12-25T17:33:15.771Z,93.48
2022-12-25T17:35:45.826Z,92.89
2022-12-25T17:38:14.588Z,92.63
2022-12-25T17:40:43.250Z,92.29
2022-12-25T17:43:17.337Z,93.03
2022-12-25T17:45:49.545Z,92.87
2022-12-25T17:48:18.192Z,93.23
2022-12-25T17:50:48.626Z,92.53
2022-12-25T17:53:17.473Z,93.18
2022-12-25T17:55:46.197Z,92.25
2022-12-25T17:58:14.994Z,93.12
2022-12-25T18:00:43.645Z,92.25
2022-12-25T18:03:12.533Z,92.81
2022-12-25T18:05:42.029Z,92.31
2022-12-25T18:08:12.145Z,92.84
2022-12-25T18:10:43.418Z,92.41
2022-12-25T18:13:13.077Z,92.17
2022-12-25T18:15:42.243Z,92.71
2022-12-25T18:18:11.293Z,92.66
2022-12-25T18:20:43.627Z,92.69
2022-12-25T18:23:13.739Z,92.17
2022-12-25T18:25:42.858Z,92.69
2022-12-25T18:28:11.903Z,92.64
2022-12-25T18:30:41.452Z,93.30
2022-12-25T18:33:10.691Z,92.14
2022-12-25T18:35:41.014Z,92.18
2022-12-25T18:38:10.557Z,90.55
2022-12-25T18:40:44.111Z,89.54
2022-12-25T18:43:13.270Z,87.86
2022-12-25T18:45:42.639Z,85.26
2022-12-25T18:48:12.177Z,83.02
2022-12-25T18:50:41.190Z,81.77
2022-12-25T18:53:10.139Z,80.72
2022-12-25T18:55:43.124Z,80.51
2022-12-25T18:58:12.332Z,80.05
2022-12-25T19:00:42.378Z,80.48
2022-12-25T19:03:11.161Z,80.30
2022-12-25T19:05:40.570Z,79.99
2022-12-25T19:08:09.238Z,79.48
2022-12-25T19:10:40.585Z,79.29
2022-12-25T19:13:11.144Z,78.88
2022-12-25T19:15:44.001Z,78.90
2022-12-25T19:18:14.135Z,78.55
2022-12-25T19:20:43.298Z,79.15
2022-12-25T19:23:12.043Z,78.69
2022-12-25T19:25:41.211Z,79.33
2022-12-25T19:28:11.344Z,79.44
2022-12-25T19:30:40.097Z,79.34
2022-12-25T19:33:15.732Z,79.35
2022-12-25T19:35:46.942Z,79.04
2022-12-25T19:38:15.941Z,79.05
2022-12-25T19:41:00.615Z,78.24
2022-12-25T19:43:32.796Z,78.25
2022-12-25T19:46:02.809Z,77.05
2022-12-25T19:48:33.304Z,76.91
2022-12-25T19:51:02.104Z,77.42
2022-12-25T19:53:31.710Z,77.40
2022-12-25T19:56:03.718Z,77.26
2022-12-25T19:58:33.876Z,77.39
2022-12-25T20:01:05.499Z,77.89
2022-12-25T20:03:36.500Z,78.31
2022-12-25T20:06:11.391Z,78.54
2022-12-25T20:08:40.179Z,78.50
2022-12-25T20:11:09.234Z,79.58
2022-12-25T20:13:39.355Z,79.18
2022-12-25T20:16:10.397Z,79.49
2022-12-25T20:18:39.856Z,79.40
2022-12-25T20:21:12.130Z,78.92
2022-12-25T20:23:41.277Z,79.19
2022-12-25T20:26:11.919Z,78.26
2022-12-25T20:28:43.634Z,77.97
2022-12-25T20:31:16.272Z,78.16
2022-12-25T20:33:45.802Z,77.73
2022-12-25T20:36:15.077Z,77.12
2022-12-25T20:38:44.073Z,77.40
2022-12-25T20:41:30.731Z,77.81
2022-12-25T20:44:02.160Z,77.66
2022-12-25T20:46:31.741Z,77.80
2022-12-25T20:49:00.669Z,78.22
2022-12-25T20:51:29.410Z,78.17
2022-12-25T20:53:58.481Z,77.88
2022-12-25T20:56:29.172Z,77.86
2022-12-25T20:58:59.888Z,78.36
2022-12-25T21:01:31.340Z,78.53
2022-12-25T21:04:00.934Z,78.50
2022-12-25T21:06:29.796Z,78.10
2022-12-25T21:08:58.501Z,78.08
2022-12-25T21:11:27.281Z,77.84
2022-12-25T21:13:56.815Z,77.56
2022-12-25T21:16:26.491Z,77.19
2022-12-25T21:18:56.683Z,77.24
2022-12-25T21:21:25.551Z,77.69
2022-12-25T21:23:57.878Z,77.32
2022-12-25T21:26:29.822Z,77.43
2022-12-25T21:29:01.541Z,77.87
2022-12-25T21:31:31.262Z,77.91
2022-12-25T21:34:01.942Z,77.80
2022-12-25T21:36:32.920Z,77.67
2022-12-25T21:39:04.577Z,78.22
2022-12-25T21:41:35.566Z,77.78
2022-12-25T21:44:05.154Z,77.77
2022-12-25T21:46:33.976Z,77.90
2022-12-25T21:49:04.477Z,77.90
2022-12-25T21:51:45.015Z,78.21
2022-12-25T21:54:15.820Z,77.95
2022-12-25T21:56:46.677Z,78.03
2022-12-25T21:59:17.634Z,78.41
2022-12-25T22:01:47.591Z,78.19
2022-12-25T22:04:19.118Z,79.11
2022-12-25T22:06:58.369Z,78.84
2022-12-25T22:09:27.310Z,78.78
2022-12-25T22:12:05.639Z,79.00
2022-12-25T22:14:51.250Z,79.24
2022-12-25T22:17:34.969Z,78.59
2022-12-25T22:20:08.775Z,78.84
2022-12-25T22:22:37.971Z,78.83
2022-12-25T22:25:09.310Z,78.91
2022-12-25T22:27:40.086Z,78.67
2022-12-25T22:30:11.325Z,78.64
2022-12-25T22:32:41.017Z,78.52
2022-12-25T22:35:12.448Z,78.44
2022-12-25T22:37:42.110Z,78.86
2022-12-25T22:40:13.803Z,79.28
2022-12-25T22:42:42.564Z,79.39
2022-12-25T22:45:12.690Z,79.14
2022-12-25T22:47:42.089Z,79.13
2022-12-25T22:50:14.789Z,80.03
2022-12-25T22:52:46.099Z,80.16
2022-12-25T22:55:19.164Z,80.17
2022-12-25T22:57:49.323Z,79.68
2022-12-25T23:00:18.185Z,79.43
2022-12-25T23:02:47.052Z,79.79
2022-12-25T23:05:17.571Z,79.79
2022-12-25T23:07:46.273Z,80.33
2022-12-25T23:10:14.907Z,80.36
2022-12-25T23:12:53.430Z,80.31
2022-12-25T23:15:22.234Z,79.77
2022-12-25T23:18:00.548Z,79.78
2022-12-25T23:20:40.677Z,79.55
2022-12-25T23:23:24.536Z,79.72
2022-12-25T23:26:03.796Z,79.74
2022-12-25T23:28:42.306Z,79.76
2022-12-25T23:31:11.235Z,80.29
2022-12-25T23:33:40.117Z,80.22
2022-12-25T23:36:11.225Z,80.86
2022-12-25T23:38:39.891Z,80.74
2022-12-25T23:41:09.854Z,81.39
2022-12-25T23:43:39.161Z,81.24
2022-12-25T23:46:07.883Z,81.14
2022-12-25T23:48:36.483Z,81.74
2022-12-25T23:51:06.729Z,81.52
2022-12-25T23:53:37.845Z,81.83
2022-12-25T23:56:07.180Z,81.60
2022-12-25T23:58:35.797Z,81.62
